createdAt,value
2019-01-06T00:00:13.272Z,1014.23
2019-01-06T00:01:13.251Z,1014.24
2019-01-06T00:02:13.230Z,1014.20
2019-01-06T00:03:13.217Z,1014.13
2019-01-06T00:04:13.223Z,1014.16
2019-01-06T00:05:13.203Z,1014.19
2019-01-06T00:06:13.187Z,1014.16
2019-01-06T00:07:13.192Z,1014.18
2019-01-06T00:08:13.169Z,1014.13
2019-01-06T00:09:13.152Z,1014.17
2019-01-06T00:10:13.161Z,1014.15
2019-01-06T00:11:13.151Z,1014.19
2019-01-06T00:12:13.153Z,1014.18
2019-01-06T00:13:13.109Z,1014.17
2019-01-06T00:14:13.100Z,1014.16
2019-01-06T00:15:13.091Z,1014.21
2019-01-06T00:16:13.078Z,1014.15
2019-01-06T00:17:13.073Z,1014.21
2019-01-06T00:18:13.085Z,1014.21
2019-01-06T00:19:13.078Z,1014.22
2019-01-06T00:20:13.040Z,1014.24
2019-01-06T00:21:13.025Z,1014.20
2019-01-06T00:22:13.014Z,1014.19
2019-01-06T00:23:13.020Z,1014.21
2019-01-06T00:24:12.990Z,1014.20
2019-01-06T00:25:12.986Z,1014.18
2019-01-06T00:26:12.978Z,1014.17
2019-01-06T00:27:12.986Z,1014.18
2019-01-06T00:28:12.947Z,1014.21
2019-01-06T00:29:12.966Z,1014.19
2019-01-06T00:30:13.040Z,1014.26
2019-01-06T00:31:12.921Z,1014.21
2019-01-06T00:32:12.919Z,1014.23
2019-01-06T00:33:12.894Z,1014.26
2019-01-06T00:34:12.921Z,1014.26
2019-01-06T00:35:12.879Z,1014.28
2019-01-06T00:36:12.864Z,1014.23
2019-01-06T00:37:12.860Z,1014.28
2019-01-06T00:38:12.847Z,1014.29
2019-01-06T00:39:12.841Z,1014.28
2019-01-06T00:40:12.845Z,1014.25
2019-01-06T00:41:12.808Z,1014.24
2019-01-06T00:42:12.800Z,1014.23
2019-01-06T00:43:12.799Z,1014.24
2019-01-06T00:44:12.803Z,1014.29
2019-01-06T00:45:12.784Z,1014.26
2019-01-06T00:46:12.757Z,1014.26
2019-01-06T00:47:12.749Z,1014.31
2019-01-06T00:48:12.739Z,1014.32
2019-01-06T00:49:12.730Z,1014.32
2019-01-06T00:50:12.736Z,1014.36
2019-01-06T00:51:12.711Z,1014.33
2019-01-06T00:52:12.723Z,1014.29
2019-01-06T00:53:12.680Z,1014.30
2019-01-06T00:54:12.673Z,1014.29
2019-01-06T00:55:12.681Z,1014.29
2019-01-06T00:56:12.652Z,1014.30
2019-01-06T00:57:12.663Z,1014.32
2019-01-06T00:58:12.631Z,1014.32
2019-01-06T00:59:12.619Z,1014.32
2019-01-06T01:00:12.606Z,1014.35
2019-01-06T01:01:12.604Z,1014.33
2019-01-06T01:02:12.606Z,1014.34
2019-01-06T01:03:12.580Z,1014.37
2019-01-06T01:04:12.581Z,1014.39
2019-01-06T01:05:12.561Z,1014.40
2019-01-06T01:06:12.563Z,1014.38
2019-01-06T01:07:12.555Z,1014.36
2019-01-06T01:08:12.521Z,1014.41
2019-01-06T01:09:12.527Z,1014.35
2019-01-06T01:10:12.505Z,1014.37
2019-01-06T01:11:12.497Z,1014.35
2019-01-06T01:12:12.516Z,1014.36
2019-01-06T01:13:12.481Z,1014.36
2019-01-06T01:14:12.463Z,1014.34
2019-01-06T01:15:12.491Z,1014.37
2019-01-06T01:16:12.510Z,1014.43
2019-01-06T01:17:12.442Z,1014.42
2019-01-06T01:18:12.416Z,1014.33
2019-01-06T01:19:12.489Z,1014.39
2019-01-06T01:20:12.393Z,1014.34
2019-01-06T01:21:12.397Z,1014.40
2019-01-06T01:22:12.400Z,1014.39
2019-01-06T01:23:12.365Z,1014.39
2019-01-06T01:24:12.356Z,1014.41
2019-01-06T01:25:12.371Z,1014.38
2019-01-06T01:26:12.335Z,1014.41
2019-01-06T01:27:12.330Z,1014.38
2019-01-06T01:28:12.330Z,1014.40
2019-01-06T01:29:12.320Z,1014.42
2019-01-06T01:30:12.291Z,1014.45
2019-01-06T01:31:12.296Z,1014.43
2019-01-06T01:32:12.265Z,1014.43
2019-01-06T01:33:12.287Z,1014.42
2019-01-06T01:34:12.275Z,1014.46
2019-01-06T01:35:12.246Z,1014.39
2019-01-06T01:36:12.257Z,1014.48
2019-01-06T01:37:12.213Z,1014.44
2019-01-06T01:38:12.230Z,1014.40
2019-01-06T01:39:12.192Z,1014.48
2019-01-06T01:40:12.180Z,1014.49
2019-01-06T01:41:12.177Z,1014.48
2019-01-06T01:42:12.163Z,1014.48
2019-01-06T01:43:12.179Z,1014.46
2019-01-06T01:44:12.144Z,1014.46
2019-01-06T01:45:12.126Z,1014.49
2019-01-06T01:46:12.120Z,1014.43
2019-01-06T01:47:12.109Z,1014.52
2019-01-06T01:48:12.119Z,1014.45
2019-01-06T01:49:12.084Z,1014.49
2019-01-06T01:50:12.075Z,1014.50
2019-01-06T01:51:12.069Z,1014.53
2019-01-06T01:52:12.055Z,1014.44
2019-01-06T01:53:12.073Z,1014.46
2019-01-06T01:54:12.038Z,1014.49
2019-01-06T01:55:12.028Z,1014.48
2019-01-06T01:56:12.016Z,1014.46
2019-01-06T01:57:11.998Z,1014.49
2019-01-06T01:58:11.990Z,1014.48
2019-01-06T01:59:11.999Z,1014.43
2019-01-06T02:00:11.966Z,1014.43
2019-01-06T02:01:11.962Z,1014.50
2019-01-06T02:02:11.960Z,1014.52
2019-01-06T02:03:11.937Z,1014.50
2019-01-06T02:04:11.942Z,1014.48
2019-01-06T02:05:11.925Z,1014.51
2019-01-06T02:06:11.907Z,1014.46
2019-01-06T02:07:11.915Z,1014.49
2019-01-06T02:08:11.899Z,1014.49
2019-01-06T02:09:11.870Z,1014.48
2019-01-06T02:10:11.862Z,1014.47
2019-01-06T02:11:11.853Z,1014.51
2019-01-06T02:12:11.868Z,1014.49
2019-01-06T02:13:11.834Z,1014.50
2019-01-06T02:14:11.821Z,1014.48
2019-01-06T02:15:11.816Z,1014.49
2019-01-06T02:16:11.818Z,1014.48
2019-01-06T02:17:11.785Z,1014.43
2019-01-06T02:18:11.794Z,1014.47
2019-01-06T02:19:11.769Z,1014.45
2019-01-06T02:20:11.763Z,1014.52
2019-01-06T02:21:11.744Z,1014.41
2019-01-06T02:22:11.737Z,1014.51
2019-01-06T02:23:11.759Z,1014.52
2019-01-06T02:24:11.712Z,1014.49
2019-01-06T02:25:11.719Z,1014.52
2019-01-06T02:26:11.693Z,1014.52
2019-01-06T02:27:11.686Z,1014.54
2019-01-06T02:28:11.686Z,1014.55
2019-01-06T02:29:11.674Z,1014.56
2019-01-06T02:30:11.648Z,1014.55
2019-01-06T02:31:11.638Z,1014.53
2019-01-06T02:32:11.662Z,1014.57
2019-01-06T02:33:11.625Z,1014.55
2019-01-06T02:34:11.633Z,1014.52
2019-01-06T02:35:11.594Z,1014.54
2019-01-06T02:36:11.582Z,1014.61
2019-01-06T02:37:11.608Z,1014.56
2019-01-06T02:38:11.573Z,1014.61
2019-01-06T02:39:11.553Z,1014.47
2019-01-06T02:40:11.553Z,1014.58
2019-01-06T02:41:11.529Z,1014.54
2019-01-06T02:42:11.524Z,1014.54
2019-01-06T02:43:11.529Z,1014.59
2019-01-06T02:44:11.587Z,1014.59
2019-01-06T02:45:11.513Z,1014.54
2019-01-06T02:46:11.476Z,1014.54
2019-01-06T02:47:11.466Z,1014.54
2019-01-06T02:48:11.453Z,1014.59
2019-01-06T02:49:11.449Z,1014.54
2019-01-06T02:50:11.443Z,1014.57
2019-01-06T02:51:11.448Z,1014.57
2019-01-06T02:52:11.413Z,1014.53
2019-01-06T02:53:11.407Z,1014.54
2019-01-06T02:54:11.390Z,1014.44
2019-01-06T02:55:11.382Z,1014.53
2019-01-06T02:56:11.367Z,1014.55
2019-01-06T02:57:11.384Z,1014.57
2019-01-06T02:58:11.364Z,1014.56
2019-01-06T02:59:11.397Z,1014.59
2019-01-06T03:00:11.334Z,1014.56
2019-01-06T03:01:11.314Z,1014.53
2019-01-06T03:02:11.330Z,1014.57
2019-01-06T03:03:11.296Z,1014.61
2019-01-06T03:04:11.300Z,1014.58
2019-01-06T03:05:11.279Z,1014.55
2019-01-06T03:06:11.273Z,1014.56
2019-01-06T03:07:11.265Z,1014.66
2019-01-06T03:08:11.259Z,1014.59
2019-01-06T03:09:11.236Z,1014.63
2019-01-06T03:10:11.230Z,1014.57
2019-01-06T03:11:11.214Z,1014.61
2019-01-06T03:12:11.223Z,1014.57
2019-01-06T03:13:11.187Z,1014.54
2019-01-06T03:14:11.179Z,1014.56
2019-01-06T03:15:11.192Z,1014.51
2019-01-06T03:16:11.157Z,1014.57
2019-01-06T03:17:11.150Z,1014.57
2019-01-06T03:18:11.138Z,1014.55
2019-01-06T03:19:11.128Z,1014.53
2019-01-06T03:20:11.120Z,1014.55
2019-01-06T03:21:11.120Z,1014.52
2019-01-06T03:22:11.093Z,1014.52
2019-01-06T03:23:11.103Z,1014.55
2019-01-06T03:24:11.623Z,1014.49
2019-01-06T03:25:11.078Z,1014.49
2019-01-06T03:26:11.051Z,1014.47
2019-01-06T03:27:11.038Z,1014.46
2019-01-06T03:28:11.049Z,1014.44
2019-01-06T03:29:11.034Z,1014.42
2019-01-06T03:30:11.045Z,1014.41
2019-01-06T03:31:11.001Z,1014.40
2019-01-06T03:32:11.011Z,1014.39
2019-01-06T03:33:10.997Z,1014.44
2019-01-06T03:34:10.968Z,1014.38
2019-01-06T03:35:10.959Z,1014.38
2019-01-06T03:36:10.969Z,1014.38
2019-01-06T03:37:10.938Z,1014.39
2019-01-06T03:38:10.929Z,1014.35
2019-01-06T03:39:10.913Z,1014.34
2019-01-06T03:40:10.917Z,1014.32
2019-01-06T03:41:10.896Z,1014.33
2019-01-06T03:42:10.904Z,1014.33
2019-01-06T03:43:10.876Z,1014.31
2019-01-06T03:44:10.875Z,1014.32
2019-01-06T03:45:10.848Z,1014.31
2019-01-06T03:46:10.858Z,1014.36
2019-01-06T03:47:10.828Z,1014.33
2019-01-06T03:48:10.816Z,1014.27
2019-01-06T03:49:10.817Z,1014.31
2019-01-06T03:50:10.802Z,1014.30
2019-01-06T03:51:10.806Z,1014.31
2019-01-06T03:52:10.790Z,1014.26
2019-01-06T03:53:10.761Z,1014.23
2019-01-06T03:54:10.758Z,1014.26
2019-01-06T03:55:10.746Z,1014.23
2019-01-06T03:56:10.756Z,1014.26
2019-01-06T03:57:10.719Z,1014.22
2019-01-06T03:58:10.711Z,1014.22
2019-01-06T03:59:10.727Z,1014.19
2019-01-06T04:00:10.686Z,1014.21
2019-01-06T04:01:10.684Z,1014.23
2019-01-06T04:02:10.672Z,1014.26
2019-01-06T04:03:10.660Z,1014.25
2019-01-06T04:04:10.653Z,1014.27
2019-01-06T04:05:10.653Z,1014.27
2019-01-06T04:06:10.637Z,1014.22
2019-01-06T04:07:10.628Z,1014.22
2019-01-06T04:08:10.602Z,1014.24
2019-01-06T04:09:10.612Z,1014.24
2019-01-06T04:10:12.756Z,1014.22
2019-01-06T04:11:15.395Z,1014.21
2019-01-06T04:12:11.557Z,1014.24
2019-01-06T04:13:10.580Z,1014.25
2019-01-06T04:14:10.543Z,1014.24
2019-01-06T04:15:10.538Z,1014.20
2019-01-06T04:16:10.522Z,1014.23
2019-01-06T04:17:10.510Z,1014.23
2019-01-06T04:18:10.531Z,1014.22
2019-01-06T04:19:10.487Z,1014.25
2019-01-06T04:20:10.479Z,1014.21
2019-01-06T04:21:10.469Z,1014.19
2019-01-06T04:22:10.458Z,1014.23
2019-01-06T04:23:10.455Z,1014.17
2019-01-06T04:24:10.455Z,1014.21
2019-01-06T04:25:10.420Z,1014.22
2019-01-06T04:26:10.416Z,1014.21
2019-01-06T04:27:10.403Z,1014.21
2019-01-06T04:28:10.396Z,1014.21
2019-01-06T04:29:10.403Z,1014.21
2019-01-06T04:30:10.375Z,1014.23
2019-01-06T04:31:10.365Z,1014.22
2019-01-06T04:32:10.347Z,1014.14
2019-01-06T04:33:10.340Z,1014.22
2019-01-06T04:34:10.331Z,1014.22
2019-01-06T04:35:10.334Z,1014.18
2019-01-06T04:36:10.311Z,1014.18
2019-01-06T04:37:10.291Z,1014.21
2019-01-06T04:38:10.285Z,1014.20
2019-01-06T04:39:10.272Z,1014.17
2019-01-06T04:40:10.296Z,1014.21
2019-01-06T04:41:10.256Z,1014.19
2019-01-06T04:42:10.366Z,1014.17
2019-01-06T04:43:10.232Z,1014.22
2019-01-06T04:44:10.216Z,1014.26
2019-01-06T04:45:10.218Z,1014.16
2019-01-06T04:46:10.225Z,1014.28
2019-01-06T04:47:10.189Z,1014.22
2019-01-06T04:48:10.182Z,1014.25
2019-01-06T04:49:10.166Z,1014.21
2019-01-06T04:50:10.156Z,1014.21
2019-01-06T04:51:10.153Z,1014.24
2019-01-06T04:52:10.150Z,1014.24
2019-01-06T04:53:10.129Z,1014.25
2019-01-06T04:54:10.115Z,1014.25
2019-01-06T04:55:10.106Z,1014.25
2019-01-06T04:56:10.101Z,1014.22
2019-01-06T04:57:10.106Z,1014.20
2019-01-06T04:58:10.071Z,1014.24
2019-01-06T04:59:10.065Z,1014.30
2019-01-06T05:00:10.053Z,1014.24
2019-01-06T05:01:10.037Z,1014.23
2019-01-06T05:02:10.029Z,1014.24
2019-01-06T05:03:10.036Z,1014.23
2019-01-06T05:04:10.008Z,1014.23
2019-01-06T05:05:10.000Z,1014.18
2019-01-06T05:06:09.987Z,1014.21
2019-01-06T05:07:09.977Z,1014.22
2019-01-06T05:08:09.986Z,1014.23
2019-01-06T05:09:09.951Z,1014.24
2019-01-06T05:10:09.968Z,1014.28
2019-01-06T05:11:09.932Z,1014.26
2019-01-06T05:12:09.925Z,1014.28
2019-01-06T05:13:09.922Z,1014.27
2019-01-06T05:14:09.923Z,1014.28
2019-01-06T05:15:09.889Z,1014.25
2019-01-06T05:16:09.897Z,1014.25
2019-01-06T05:17:09.872Z,1014.28
2019-01-06T05:18:09.860Z,1014.29
2019-01-06T05:19:09.868Z,1014.26
2019-01-06T05:20:09.842Z,1014.24
2019-01-06T05:21:09.824Z,1014.29
2019-01-06T05:22:09.814Z,1014.34
2019-01-06T05:23:09.805Z,1014.29
2019-01-06T05:24:09.808Z,1014.22
2019-01-06T05:25:09.792Z,1014.24
2019-01-06T05:26:09.776Z,1014.27
2019-01-06T05:27:09.765Z,1014.26
2019-01-06T05:28:09.755Z,1014.24
2019-01-06T05:29:09.761Z,1014.20
2019-01-06T05:30:09.747Z,1014.22
2019-01-06T05:31:09.720Z,1014.23
2019-01-06T05:32:09.713Z,1014.21
2019-01-06T05:33:09.702Z,1014.24
2019-01-06T05:34:09.686Z,1014.18
2019-01-06T05:35:09.694Z,1014.25
2019-01-06T05:36:09.666Z,1014.22
2019-01-06T05:37:09.662Z,1014.23
2019-01-06T05:38:09.653Z,1014.20
2019-01-06T05:39:09.635Z,1014.28
2019-01-06T05:40:09.655Z,1014.27
2019-01-06T05:41:09.610Z,1014.34
2019-01-06T05:42:09.601Z,1014.29
2019-01-06T05:43:09.590Z,1014.28
2019-01-06T05:44:09.577Z,1014.29
2019-01-06T05:45:09.575Z,1014.24
2019-01-06T05:46:09.582Z,1014.29
2019-01-06T05:47:09.547Z,1014.28
2019-01-06T05:48:09.537Z,1014.31
2019-01-06T05:49:09.530Z,1014.26
2019-01-06T05:50:09.528Z,1014.30
2019-01-06T05:51:09.535Z,1014.27
2019-01-06T05:52:09.499Z,1014.29
2019-01-06T05:53:09.488Z,1014.36
2019-01-06T05:54:09.473Z,1014.32
2019-01-06T05:55:09.465Z,1014.36
2019-01-06T05:56:09.449Z,1014.37
2019-01-06T05:57:09.467Z,1014.37
2019-01-06T05:58:09.433Z,1014.37
2019-01-06T05:59:09.421Z,1014.39
2019-01-06T06:00:09.412Z,1014.39
2019-01-06T06:01:09.395Z,1014.36
2019-01-06T06:02:09.387Z,1014.40
2019-01-06T06:03:09.404Z,1014.36
2019-01-06T06:04:09.370Z,1014.36
2019-01-06T06:05:10.148Z,1014.38
2019-01-06T06:06:09.344Z,1014.35
2019-01-06T06:07:11.447Z,1014.37
2019-01-06T06:08:09.320Z,1014.42
2019-01-06T06:09:09.334Z,1014.43
2019-01-06T06:10:09.303Z,1014.41
2019-01-06T06:11:09.295Z,1014.44
2019-01-06T06:12:09.290Z,1014.33
2019-01-06T06:13:09.271Z,1014.44
2019-01-06T06:14:09.277Z,1014.42
2019-01-06T06:15:09.253Z,1014.42
2019-01-06T06:16:09.233Z,1014.45
2019-01-06T06:17:09.230Z,1014.47
2019-01-06T06:18:09.219Z,1014.50
2019-01-06T06:19:09.313Z,1014.51
2019-01-06T06:20:09.195Z,1014.50
2019-01-06T06:21:09.193Z,1014.49
2019-01-06T06:22:09.187Z,1014.54
2019-01-06T06:23:09.173Z,1014.54
2019-01-06T06:24:09.168Z,1014.56
2019-01-06T06:25:09.161Z,1014.55
2019-01-06T06:26:09.130Z,1014.59
2019-01-06T06:27:09.119Z,1014.56
2019-01-06T06:28:09.135Z,1014.56
2019-01-06T06:29:09.136Z,1014.58
2019-01-06T06:30:09.089Z,1014.57
2019-01-06T06:31:09.097Z,1014.62
2019-01-06T06:32:09.074Z,1014.58
2019-01-06T06:33:09.053Z,1014.63
2019-01-06T06:34:09.044Z,1014.61
2019-01-06T06:35:09.039Z,1014.67
2019-01-06T06:36:10.194Z,1014.62
2019-01-06T06:37:09.017Z,1014.62
2019-01-06T06:38:09.009Z,1014.70
2019-01-06T06:39:08.991Z,1014.66
2019-01-06T06:40:08.978Z,1014.65
2019-01-06T06:41:09.001Z,1014.64
2019-01-06T06:42:08.960Z,1014.61
2019-01-06T06:43:08.950Z,1014.63
2019-01-06T06:44:08.941Z,1014.64
2019-01-06T06:45:08.925Z,1014.62
2019-01-06T06:46:08.915Z,1014.62
2019-01-06T06:47:08.929Z,1014.65
2019-01-06T06:48:08.895Z,1014.63
2019-01-06T06:49:08.891Z,1014.65
2019-01-06T06:50:08.920Z,1014.66
2019-01-06T06:51:08.861Z,1014.67
2019-01-06T06:52:08.848Z,1014.67
2019-01-06T06:53:08.873Z,1014.68
2019-01-06T06:54:08.834Z,1014.73
2019-01-06T06:55:08.822Z,1014.76
2019-01-06T06:56:08.813Z,1014.78
2019-01-06T06:57:08.806Z,1014.76
2019-01-06T06:58:08.816Z,1014.74
2019-01-06T06:59:08.774Z,1014.81
2019-01-06T07:00:08.869Z,1014.78
2019-01-06T07:01:08.760Z,1014.81
2019-01-06T07:02:08.753Z,1014.84
2019-01-06T07:03:08.761Z,1014.85
2019-01-06T07:04:08.816Z,1014.85
2019-01-06T07:05:08.716Z,1014.91
2019-01-06T07:06:08.700Z,1014.89
2019-01-06T07:07:08.695Z,1014.86
2019-01-06T07:08:08.681Z,1014.88
2019-01-06T07:09:08.688Z,1014.89
2019-01-06T07:10:08.658Z,1014.87
2019-01-06T07:11:08.687Z,1014.91
2019-01-06T07:12:08.641Z,1014.98
2019-01-06T07:13:08.629Z,1014.89
2019-01-06T07:14:08.648Z,1014.92
2019-01-06T07:15:08.627Z,1014.91
2019-01-06T07:16:08.597Z,1014.92
2019-01-06T07:17:08.584Z,1014.87
2019-01-06T07:18:08.572Z,1014.94
2019-01-06T07:19:08.562Z,1014.94
2019-01-06T07:20:08.570Z,1014.96
2019-01-06T07:21:08.546Z,1014.95
2019-01-06T07:22:08.557Z,1015.02
2019-01-06T07:23:08.549Z,1015.01
2019-01-06T07:24:08.558Z,1014.98
2019-01-06T07:25:08.583Z,1015.12
2019-01-06T07:26:08.494Z,1015.09
2019-01-06T07:27:08.481Z,1015.08
2019-01-06T07:28:08.470Z,1015.16
2019-01-06T07:29:08.455Z,1015.14
2019-01-06T07:30:08.449Z,1015.16
2019-01-06T07:31:08.456Z,1015.16
2019-01-06T07:32:08.444Z,1015.14
2019-01-06T07:33:08.418Z,1015.22
2019-01-06T07:34:08.407Z,1015.18
2019-01-06T07:35:08.416Z,1015.18
2019-01-06T07:36:08.413Z,1015.15
2019-01-06T07:37:08.373Z,1015.21
2019-01-06T07:38:08.368Z,1015.24
2019-01-06T07:39:08.355Z,1015.27
2019-01-06T07:40:08.344Z,1015.21
2019-01-06T07:41:08.355Z,1015.25
2019-01-06T07:42:08.318Z,1015.24
2019-01-06T07:43:08.305Z,1015.26
2019-01-06T07:44:08.340Z,1015.30
2019-01-06T07:45:08.340Z,1015.24
2019-01-06T07:46:08.282Z,1015.33
2019-01-06T07:47:08.294Z,1015.35
2019-01-06T07:48:08.256Z,1015.35
2019-01-06T07:49:08.243Z,1015.39
2019-01-06T07:50:08.230Z,1015.41
2019-01-06T07:51:08.222Z,1015.36
2019-01-06T07:52:08.211Z,1015.40
2019-01-06T07:53:08.227Z,1015.43
2019-01-06T07:54:08.194Z,1015.43
2019-01-06T07:55:08.185Z,1015.47
2019-01-06T07:56:08.167Z,1015.47
2019-01-06T07:57:08.161Z,1015.47
2019-01-06T07:58:08.179Z,1015.45
2019-01-06T07:59:08.145Z,1015.51
2019-01-06T08:00:15.160Z,1015.49
2019-01-06T08:01:09.980Z,1015.53
2019-01-06T08:02:08.106Z,1015.55
2019-01-06T08:03:08.090Z,1015.56
2019-01-06T08:04:08.109Z,1015.63
2019-01-06T08:05:08.107Z,1015.57
2019-01-06T08:06:08.123Z,1015.59
2019-01-06T08:07:08.062Z,1015.63
2019-01-06T08:08:08.063Z,1015.62
2019-01-06T08:09:08.051Z,1015.61
2019-01-06T08:10:08.018Z,1015.64
2019-01-06T08:11:08.014Z,1015.62
2019-01-06T08:12:08.012Z,1015.63
2019-01-06T08:13:08.009Z,1015.66
2019-01-06T08:14:07.974Z,1015.77
2019-01-06T08:15:07.965Z,1015.70
2019-01-06T08:16:07.956Z,1015.70
2019-01-06T08:17:07.947Z,1015.71
2019-01-06T08:18:07.939Z,1015.71
2019-01-06T08:19:07.966Z,1015.73
2019-01-06T08:20:07.935Z,1015.76
2019-01-06T08:21:07.908Z,1015.73
2019-01-06T08:22:07.890Z,1015.76
2019-01-06T08:23:07.879Z,1015.83
2019-01-06T08:24:07.895Z,1015.77
2019-01-06T08:25:07.866Z,1015.80
2019-01-06T08:26:07.885Z,1015.77
2019-01-06T08:27:08.863Z,1015.77
2019-01-06T08:28:07.828Z,1015.76
2019-01-06T08:29:07.822Z,1015.76
2019-01-06T08:30:07.829Z,1015.79
2019-01-06T08:31:07.800Z,1015.79
2019-01-06T08:32:07.787Z,1015.81
2019-01-06T08:33:07.777Z,1015.84
2019-01-06T08:34:07.761Z,1015.81
2019-01-06T08:35:07.776Z,1015.79
2019-01-06T08:36:07.744Z,1015.76
2019-01-06T08:37:07.733Z,1015.77
2019-01-06T08:38:07.725Z,1015.82
2019-01-06T08:39:07.715Z,1015.80
2019-01-06T08:40:07.702Z,1015.82
2019-01-06T08:41:07.716Z,1015.83
2019-01-06T08:42:07.676Z,1015.86
2019-01-06T08:43:07.672Z,1015.79
2019-01-06T08:44:07.660Z,1015.82
2019-01-06T08:45:07.647Z,1015.87
2019-01-06T08:46:08.578Z,1015.82
2019-01-06T08:47:07.682Z,1015.85
2019-01-06T08:48:07.672Z,1015.92
2019-01-06T08:49:07.609Z,1015.86
2019-01-06T08:50:07.603Z,1015.90
2019-01-06T08:51:07.614Z,1015.85
2019-01-06T08:52:07.574Z,1015.85
2019-01-06T08:53:07.561Z,1015.90
2019-01-06T08:54:07.549Z,1015.90
2019-01-06T08:55:07.544Z,1015.88
2019-01-06T08:56:07.529Z,1015.93
2019-01-06T08:57:07.541Z,1015.87
2019-01-06T08:58:07.512Z,1015.97
2019-01-06T08:59:07.507Z,1015.97
2019-01-06T09:00:07.485Z,1015.93
2019-01-06T09:01:07.478Z,1015.90
2019-01-06T09:02:07.489Z,1015.92
2019-01-06T09:03:07.462Z,1015.99
2019-01-06T09:04:07.463Z,1015.95
2019-01-06T09:05:07.445Z,1015.93
2019-01-06T09:06:07.419Z,1015.90
2019-01-06T09:07:07.412Z,1015.97
2019-01-06T09:08:07.422Z,1015.95
2019-01-06T09:09:07.486Z,1015.93
2019-01-06T09:10:07.391Z,1015.95
2019-01-06T09:11:07.373Z,1015.95
2019-01-06T09:12:07.360Z,1015.94
2019-01-06T09:13:07.349Z,1016.01
2019-01-06T09:14:07.354Z,1016.00
2019-01-06T09:15:07.363Z,1015.97
2019-01-06T09:16:07.318Z,1015.93
2019-01-06T09:17:07.769Z,1015.92
2019-01-06T09:18:07.301Z,1015.94
2019-01-06T09:19:07.298Z,1015.93
2019-01-06T09:20:07.292Z,1015.93
2019-01-06T09:21:07.264Z,1015.93
2019-01-06T09:22:07.256Z,1015.95
2019-01-06T09:23:07.250Z,1015.95
2019-01-06T09:24:07.254Z,1015.96
2019-01-06T09:25:07.219Z,1015.90
2019-01-06T09:26:07.206Z,1015.91
2019-01-06T09:27:07.205Z,1015.96
2019-01-06T09:28:07.196Z,1015.92
2019-01-06T09:29:07.634Z,1015.91
2019-01-06T09:30:07.217Z,1015.98
2019-01-06T09:31:07.152Z,1015.95
2019-01-06T09:32:07.153Z,1015.92
2019-01-06T09:33:07.135Z,1015.98
2019-01-06T09:34:07.128Z,1015.96
2019-01-06T09:35:07.133Z,1015.96
2019-01-06T09:36:07.103Z,1016.00
2019-01-06T09:37:07.107Z,1015.99
2019-01-06T09:38:07.078Z,1015.99
2019-01-06T09:39:07.066Z,1015.99
2019-01-06T09:40:07.057Z,1015.99
2019-01-06T09:41:07.049Z,1015.97
2019-01-06T09:42:07.093Z,1016.02
2019-01-06T09:43:07.036Z,1016.03
2019-01-06T09:44:07.017Z,1016.02
2019-01-06T09:45:07.007Z,1015.99
2019-01-06T09:46:06.991Z,1016.03
2019-01-06T09:47:06.987Z,1016.00
2019-01-06T09:48:07.069Z,1016.02
2019-01-06T09:49:06.963Z,1015.99
2019-01-06T09:50:06.981Z,1016.02
2019-01-06T09:51:06.977Z,1016.03
2019-01-06T09:52:06.962Z,1016.04
2019-01-06T09:53:06.939Z,1016.04
2019-01-06T09:54:06.907Z,1016.07
2019-01-06T09:55:07.137Z,1016.03
2019-01-06T09:56:06.884Z,1016.06
2019-01-06T09:57:06.873Z,1016.04
2019-01-06T09:58:06.883Z,1016.11
2019-01-06T09:59:06.880Z,1016.11
2019-01-06T10:00:06.845Z,1016.08
2019-01-06T10:01:06.834Z,1016.09
2019-01-06T10:02:06.828Z,1016.09
2019-01-06T10:03:06.808Z,1016.10
2019-01-06T10:04:06.799Z,1016.07
2019-01-06T10:05:06.814Z,1016.07
2019-01-06T10:06:07.579Z,1016.10
2019-01-06T10:07:06.775Z,1016.14
2019-01-06T10:08:07.087Z,1016.09
2019-01-06T10:09:06.745Z,1016.14
2019-01-06T10:10:06.758Z,1016.14
2019-01-06T10:11:06.749Z,1016.14
2019-01-06T10:12:06.798Z,1016.13
2019-01-06T10:13:06.705Z,1016.17
2019-01-06T10:14:06.700Z,1016.17
2019-01-06T10:15:06.685Z,1016.18
2019-01-06T10:16:06.919Z,1016.14
2019-01-06T10:17:06.665Z,1016.13
2019-01-06T10:18:06.650Z,1016.17
2019-01-06T10:19:06.643Z,1016.15
2019-01-06T10:20:06.637Z,1016.12
2019-01-06T10:21:06.708Z,1016.16
2019-01-06T10:22:06.606Z,1016.12
2019-01-06T10:23:06.595Z,1016.15
2019-01-06T10:24:06.584Z,1016.18
2019-01-06T10:25:07.264Z,1016.14
2019-01-06T10:26:06.586Z,1016.14
2019-01-06T10:27:06.560Z,1016.17
2019-01-06T10:28:06.544Z,1016.15
2019-01-06T10:29:06.532Z,1016.23
2019-01-06T10:30:06.516Z,1016.17
2019-01-06T10:31:06.527Z,1016.17
2019-01-06T10:32:06.539Z,1016.15
2019-01-06T10:33:06.557Z,1016.17
2019-01-06T10:34:06.481Z,1016.17
2019-01-06T10:35:06.462Z,1016.19
2019-01-06T10:36:06.456Z,1016.17
2019-01-06T10:37:06.447Z,1016.19
2019-01-06T10:38:06.464Z,1016.13
2019-01-06T10:39:06.429Z,1016.18
2019-01-06T10:40:06.414Z,1016.17
2019-01-06T10:41:06.399Z,1016.15
2019-01-06T10:42:06.391Z,1016.19
2019-01-06T10:43:06.380Z,1016.17
2019-01-06T10:44:06.386Z,1016.15
2019-01-06T10:45:06.359Z,1016.15
2019-01-06T10:46:06.350Z,1016.15
2019-01-06T10:47:06.340Z,1016.21
2019-01-06T10:48:06.332Z,1016.13
2019-01-06T10:49:06.338Z,1016.15
2019-01-06T10:50:06.303Z,1016.16
2019-01-06T10:51:06.298Z,1016.19
2019-01-06T10:52:06.288Z,1016.14
2019-01-06T10:53:06.293Z,1016.19
2019-01-06T10:54:06.332Z,1016.15
2019-01-06T10:55:06.248Z,1016.19
2019-01-06T10:56:06.238Z,1016.20
2019-01-06T10:57:06.250Z,1016.26
2019-01-06T10:58:06.222Z,1016.19
2019-01-06T10:59:06.236Z,1016.23
2019-01-06T11:00:06.217Z,1016.29
2019-01-06T11:01:06.184Z,1016.25
2019-01-06T11:02:06.194Z,1016.32
2019-01-06T11:03:06.165Z,1016.34
2019-01-06T11:04:06.153Z,1016.32
2019-01-06T11:05:06.162Z,1016.35
2019-01-06T11:06:06.134Z,1016.36
2019-01-06T11:07:06.123Z,1016.33
2019-01-06T11:08:06.111Z,1016.34
2019-01-06T11:09:06.103Z,1016.34
2019-01-06T11:10:06.106Z,1016.36
2019-01-06T11:11:06.082Z,1016.36
2019-01-06T11:12:06.068Z,1016.33
2019-01-06T11:13:06.062Z,1016.36
2019-01-06T11:14:06.067Z,1016.37
2019-01-06T11:15:06.083Z,1016.33
2019-01-06T11:16:06.027Z,1016.34
2019-01-06T11:17:06.013Z,1016.34
2019-01-06T11:18:06.001Z,1016.32
2019-01-06T11:19:05.996Z,1016.32
2019-01-06T11:20:05.979Z,1016.34
2019-01-06T11:21:05.994Z,1016.36
2019-01-06T11:22:05.962Z,1016.33
2019-01-06T11:23:05.947Z,1016.35
2019-01-06T11:24:05.935Z,1016.31
2019-01-06T11:25:05.947Z,1016.31
2019-01-06T11:26:05.945Z,1016.34
2019-01-06T11:27:05.961Z,1016.37
2019-01-06T11:28:05.899Z,1016.36
2019-01-06T11:29:05.880Z,1016.32
2019-01-06T11:30:05.876Z,1016.34
2019-01-06T11:31:05.860Z,1016.36
2019-01-06T11:32:05.866Z,1016.40
2019-01-06T11:33:05.846Z,1016.40
2019-01-06T11:34:05.833Z,1016.37
2019-01-06T11:35:05.840Z,1016.37
2019-01-06T11:36:05.857Z,1016.40
2019-01-06T11:37:05.815Z,1016.36
2019-01-06T11:38:05.786Z,1016.34
2019-01-06T11:39:05.777Z,1016.35
2019-01-06T11:40:05.774Z,1016.32
2019-01-06T11:41:07.832Z,1016.36
2019-01-06T11:42:06.167Z,1016.32
2019-01-06T11:43:05.733Z,1016.34
2019-01-06T11:44:05.743Z,1016.37
2019-01-06T11:45:05.717Z,1016.33
2019-01-06T11:46:05.707Z,1016.31
2019-01-06T11:47:05.692Z,1016.32
2019-01-06T11:48:05.697Z,1016.33
2019-01-06T11:49:05.668Z,1016.33
2019-01-06T11:50:05.679Z,1016.35
2019-01-06T11:51:05.658Z,1016.35
2019-01-06T11:52:05.636Z,1016.30
2019-01-06T11:53:05.629Z,1016.31
2019-01-06T11:54:05.637Z,1016.29
2019-01-06T11:55:05.610Z,1016.31
2019-01-06T11:56:05.594Z,1016.25
2019-01-06T11:57:05.639Z,1016.30
2019-01-06T11:58:05.579Z,1016.27
2019-01-06T11:59:05.585Z,1016.29
2019-01-06T12:00:05.617Z,1016.23
2019-01-06T12:01:05.554Z,1016.19
2019-01-06T12:02:05.530Z,1016.23
2019-01-06T12:03:05.548Z,1016.21
2019-01-06T12:04:05.508Z,1016.20
2019-01-06T12:05:05.532Z,1016.21